Time;durP1;ratioP1;P1;durP2;ratioP2;P2;SDS_P1;SDS_P2;PMS_P1;PMS_P2;Temp;Humidity;BMP_temperature;BMP_pressure;BME280_temperature;BME280_humidity;BME280_pressure;Samples;Min_cycle;Max_cycle;Signal;HPM_P1;HPM_P2
2022/05/15 00:01:54;;;;;;;9.15;2.77;;;;;;;11.88;63.53;99415.39;1746032;80;21760;-61
2022/05/15 00:04:21;;;;;;;5.95;1.82;;;;;;;12.13;62.96;99410.19;1758586;80;21598;-61
2022/05/15 00:06:49;;;;;;;6.05;2.20;;;;;;;11.86;64.11;99415.91;1751752;80;21388;-61
2022/05/15 00:09:16;;;;;;;5.78;2.25;;;;;;;11.96;63.93;99418.09;1751268;80;21442;-61
2022/05/15 00:11:43;;;;;;;6.00;2.67;;;;;;;11.86;63.94;99413.75;1753468;80;21478;-62
2022/05/15 00:14:11;;;;;;;6.20;2.58;;;;;;;11.75;64.28;99419.56;1754662;80;22106;-62
2022/05/15 00:16:39;;;;;;;5.40;1.95;;;;;;;11.60;64.75;99415.95;1757824;80;21415;-62
2022/05/15 00:19:06;;;;;;;4.23;2.30;;;;;;;11.50;65.16;99416.02;1749486;80;21509;-62
2022/05/15 00:21:33;;;;;;;6.25;2.02;;;;;;;11.34;66.04;99411.98;1739185;80;21479;-62
2022/05/15 00:24:00;;;;;;;2.80;2.02;;;;;;;11.34;66.82;99411.11;1755274;80;21627;-62
2022/05/15 00:26:27;;;;;;;5.12;2.80;;;;;;;11.34;67.04;99408.48;1746855;80;21765;-62
2022/05/15 00:28:54;;;;;;;4.35;2.10;;;;;;;11.27;67.43;99404.84;1755063;80;21582;-62
2022/05/15 00:31:21;;;;;;;6.05;2.10;;;;;;;11.24;67.89;99411.56;1752750;80;21483;-61
2022/05/15 00:33:48;;;;;;;7.87;2.40;;;;;;;11.20;68.27;99411.80;1743972;80;21430;-61
2022/05/15 00:36:14;;;;;;;7.08;2.22;;;;;;;11.20;69.21;99406.55;1748258;80;21499;-61
2022/05/15 00:38:41;;;;;;;6.55;2.22;;;;;;;11.30;69.27;99409.09;1752745;80;21514;-62
2022/05/15 00:41:08;;;;;;;3.40;2.10;;;;;;;11.35;69.27;99412.36;1755808;80;21558;-62
2022/05/15 00:43:46;;;;;;;4.58;2.47;;;;;;;11.29;69.20;99412.67;1746633;80;21582;-61
2022/05/15 00:46:15;;;;;;;;;;;;;;;11.16;69.72;99414.20;1755254;80;21518;-62
2022/05/15 00:48:43;;;;;;;4.78;2.00;;;;;;;11.01;70.43;99407.91;1752498;80;20413;-62
2022/05/15 00:51:21;;;;;;;5.77;2.50;;;;;;;10.99;71.52;99408.45;1737897;80;22020;-62
2022/05/15 00:53:50;;;;;;;7.55;2.50;;;;;;;11.33;71.25;99397.58;1757991;80;21443;-61
2022/05/15 00:56:19;;;;;;;5.00;2.00;;;;;;;11.16;71.63;99411.58;1744094;80;20938;-61
2022/05/15 00:58:51;;;;;;;5.05;2.27;;;;;;;11.13;71.73;99405.13;1755108;80;21447;-61
2022/05/15 01:01:18;;;;;;;4.22;2.05;;;;;;;11.41;71.33;99403.30;1740347;80;22057;-61
2022/05/15 01:03:45;;;;;;;4.15;2.22;;;;;;;11.45;71.74;99400.46;1748661;80;21833;-62
2022/05/15 01:06:12;;;;;;;4.40;2.10;;;;;;;11.55;71.73;99398.20;1755858;80;21557;-61
2022/05/15 01:08:39;;;;;;;8.03;3.08;;;;;;;11.45;71.84;99398.27;1751927;80;21092;-62
2022/05/15 01:11:10;;;;;;;9.48;2.52;;;;;;;11.46;72.29;99397.35;1747390;80;21446;-61
2022/05/15 01:13:39;;;;;;;5.42;2.77;;;;;;;11.41;72.44;99398.04;1753783;79;21446;-61
2022/05/15 01:16:06;;;;;;;4.60;2.55;;;;;;;11.65;71.66;99388.89;1752917;80;21873;-62
2022/05/15 01:18:36;;;;;;;6.45;2.42;;;;;;;11.71;71.45;99390.36;1751703;79;21049;-63
2022/05/15 01:21:19;;;;;;;4.15;2.20;;;;;;;11.81;71.25;99390.73;1759379;79;21522;-62
2022/05/15 01:23:46;;;;;;;4.70;2.35;;;;;;;11.79;71.37;99393.91;1666370;83;21843;-61
2022/05/15 01:26:13;;;;;;;5.95;2.67;;;;;;;11.73;70.87;99388.50;1694786;83;21578;-61
2022/05/15 01:28:40;;;;;;;5.87;3.25;;;;;;;11.68;71.07;99386.59;1687182;83;21982;-62
2022/05/15 01:31:07;;;;;;;5.22;2.10;;;;;;;11.64;71.29;99383.26;1706076;83;21590;-61
2022/05/15 01:33:34;;;;;;;4.13;2.47;;;;;;;11.74;71.31;99387.58;1712969;83;21553;-63
2022/05/15 01:36:00;;;;;;;7.20;2.60;;;;;;;11.78;71.05;99379.06;1702439;82;21487;-62
2022/05/15 01:38:29;;;;;;;5.03;2.75;;;;;;;11.79;70.73;99386.02;1711219;83;21073;-62
2022/05/15 01:40:56;;;;;;;8.03;2.80;;;;;;;11.72;70.73;99388.12;1732486;81;21772;-67
2022/05/15 01:43:23;;;;;;;3.95;2.17;;;;;;;11.38;71.69;99385.05;1707774;83;21045;-62
2022/05/15 01:45:49;;;;;;;5.33;2.45;;;;;;;11.27;72.62;99380.31;1710521;83;20994;-61
2022/05/15 01:48:16;;;;;;;8.33;2.45;;;;;;;11.28;72.69;99374.98;1703057;82;21494;-62
2022/05/15 01:50:43;;;;;;;5.90;2.60;;;;;;;11.24;72.52;99377.35;1685504;83;21057;-62
2022/05/15 01:53:11;;;;;;;6.28;3.35;;;;;;;11.12;72.77;99380.61;1711091;83;21926;-62
2022/05/15 01:55:38;;;;;;;5.33;2.33;;;;;;;11.20;72.44;99383.70;1710066;83;21578;-62
2022/05/15 01:58:09;;;;;;;5.53;2.58;;;;;;;11.19;72.39;99374.13;1716012;83;21526;-62
2022/05/15 02:00:34;;;;;;;6.00;2.62;;;;;;;11.23;72.25;99369.56;1702227;82;21505;-63
2022/05/15 02:03:01;;;;;;;6.00;2.80;;;;;;;11.23;72.18;99370.88;1712467;82;21621;-62
2022/05/15 02:05:28;;;;;;;7.70;3.43;;;;;;;11.18;72.61;99360.56;1704543;82;21826;-62
2022/05/15 02:07:55;;;;;;;5.47;3.00;;;;;;;11.12;72.94;99361.34;1689732;83;21488;-62
2022/05/15 02:10:22;;;;;;;6.12;2.42;;;;;;;10.91;73.96;99364.94;1750013;80;21546;-62
2022/05/15 02:12:51;;;;;;;9.53;3.12;;;;;;;11.13;74.05;99370.45;1734428;80;20994;-62
2022/05/15 02:15:18;;;;;;;6.37;3.45;;;;;;;11.24;74.00;99368.14;1743444;80;21585;-63
2022/05/15 02:17:45;;;;;;;5.65;3.15;;;;;;;11.18;73.91;99361.88;1754483;80;22110;-63
2022/05/15 02:20:12;;;;;;;7.67;3.23;;;;;;;11.05;74.16;99359.00;1697523;84;21408;-62
2022/05/15 02:22:40;;;;;;;6.72;3.67;;;;;;;11.05;74.64;99363.41;1754100;80;21517;-63
2022/05/15 02:25:08;;;;;;;2.98;2.55;;;;;;;10.92;75.33;99363.16;1742306;80;21432;-63
2022/05/15 02:27:37;;;;;;;5.20;3.22;;;;;;;10.86;75.86;99356.89;1754749;80;21452;-62
2022/05/15 02:30:06;;;;;;;4.50;3.20;;;;;;;10.84;76.25;99349.54;1739346;80;21770;-62
2022/05/15 02:32:32;;;;;;;5.78;3.52;;;;;;;10.78;76.65;99349.38;1734333;80;21562;-62
2022/05/15 02:34:59;;;;;;;6.22;3.02;;;;;;;10.74;77.09;99350.45;1748561;80;21053;-64
2022/05/15 02:37:26;;;;;;;4.17;3.15;;;;;;;10.86;77.22;99352.94;1752240;80;21495;-63
2022/05/15 02:39:53;;;;;;;5.97;3.25;;;;;;;10.98;76.89;99357.62;1746933;80;21474;-62
2022/05/15 02:42:21;;;;;;;4.58;2.90;;;;;;;11.02;76.71;99353.03;1755388;80;21969;-62
2022/05/15 02:44:49;;;;;;;5.08;3.10;;;;;;;11.04;76.45;99362.57;1737341;80;21477;-62
2022/05/15 02:47:15;;;;;;;13.30;3.72;;;;;;;10.96;76.73;99375.23;1747093;80;20988;-62
2022/05/15 02:52:27;;;;;;;6.30;3.27;;;;;;;11.08;77.20;99384.33;1759694;80;20990;-63
2022/05/15 02:54:54;;;;;;;5.37;3.60;;;;;;;11.08;76.80;99389.59;1750697;80;21759;-63
2022/05/15 02:57:21;;;;;;;4.33;3.20;;;;;;;11.32;76.45;99387.53;1688505;82;21427;-64
2022/05/15 02:59:48;;;;;;;6.12;3.35;;;;;;;11.26;76.29;99386.49;1748540;80;21420;-63
2022/05/15 03:02:14;;;;;;;4.83;3.02;;;;;;;11.13;76.51;99388.03;1746455;80;21548;-63
2022/05/15 03:04:43;;;;;;;5.87;3.20;;;;;;;11.36;76.44;99388.20;1750735;80;21549;-63
2022/05/15 03:07:10;;;;;;;8.70;3.55;;;;;;;11.35;76.56;99391.77;1748902;80;21423;-63
2022/05/15 03:09:36;;;;;;;7.97;3.62;;;;;;;11.37;76.33;99397.34;1763253;80;21423;-62
2022/05/15 03:12:04;;;;;;;5.03;3.25;;;;;;;11.43;76.23;99398.81;1747652;80;21564;-63
2022/05/15 03:14:31;;;;;;;;;;;;;;;11.32;76.48;99407.27;1752587;80;21443;-63
2022/05/15 03:16:58;;;;;;;6.45;3.55;;;;;;;11.40;76.77;99409.05;1747819;80;20426;-63
2022/05/15 03:20:09;;;;;;;6.85;3.47;;;;;;;10.93;78.56;99404.80;1789215;78;23221;-63
2022/05/15 03:22:37;;;;;;;10.78;3.42;;;;;;;11.63;76.02;99397.34;1761298;80;21529;-63
2022/05/15 03:25:05;;;;;;;6.28;3.65;;;;;;;11.71;74.68;99393.00;1763862;80;21946;-63
2022/05/15 03:27:33;;;;;;;7.65;3.77;;;;;;;11.72;75.02;99391.23;1762660;79;21529;-63
2022/05/15 03:30:01;;;;;;;5.33;3.87;;;;;;;11.86;74.61;99393.98;1764048;80;21523;-64
2022/05/15 03:32:28;;;;;;;8.53;3.33;;;;;;;11.95;73.79;99388.27;1759052;79;21545;-64
2022/05/15 03:34:56;;;;;;;5.70;3.25;;;;;;;11.68;74.42;99398.44;1764891;79;21450;-63
2022/05/15 03:37:23;;;;;;;7.15;3.10;;;;;;;11.71;74.69;99390.84;1756906;80;21421;-62
2022/05/15 03:39:51;;;;;;;4.90;3.00;;;;;;;11.84;74.23;99396.70;1761631;79;21411;-63
2022/05/15 03:42:19;;;;;;;8.33;3.40;;;;;;;11.98;73.88;99393.39;1760480;80;21565;-62
2022/05/15 03:44:45;;;;;;;7.30;3.25;;;;;;;12.05;72.95;99398.73;1766099;80;21982;-63
2022/05/15 03:47:12;;;;;;;3.60;3.30;;;;;;;12.06;72.67;99394.30;1767835;79;21489;-64
2022/05/15 03:49:39;;;;;;;6.70;3.37;;;;;;;12.00;73.00;99406.49;1765729;79;21815;-65
2022/05/15 03:52:07;;;;;;;5.72;3.35;;;;;;;11.93;72.76;99384.03;1763242;79;21513;-63
2022/05/15 03:54:33;;;;;;;8.20;3.40;;;;;;;12.19;72.20;99400.63;1771589;79;21526;-64
2022/05/15 03:57:01;;;;;;;4.72;3.33;;;;;;;12.14;72.00;99401.80;1764963;79;21515;-65
2022/05/15 03:59:33;;;;;;;7.95;3.27;;;;;;;12.23;71.90;99406.11;1765556;80;21458;-66
2022/05/15 04:02:01;;;;;;;9.05;3.35;;;;;;;12.27;71.53;99394.94;1774300;79;21832;-59
2022/05/15 04:04:29;;;;;;;5.50;3.37;;;;;;;12.37;71.46;99400.09;1767067;80;21473;-59
2022/05/15 04:06:56;;;;;;;11.88;3.52;;;;;;;12.47;71.14;99403.10;1758951;80;21451;-60
2022/05/15 04:09:23;;;;;;;7.57;4.13;;;;;;;12.53;70.42;99411.98;1776015;79;21562;-61
2022/05/15 04:11:50;;;;;;;9.45;3.52;;;;;;;12.59;70.12;99410.80;1756727;80;21816;-59
2022/05/15 04:14:18;;;;;;;5.55;3.27;;;;;;;12.56;70.05;99407.84;1769017;80;22227;-59
2022/05/15 04:16:44;;;;;;;5.03;3.15;;;;;;;12.59;70.40;99413.44;1771425;80;21426;-68
2022/05/15 04:19:12;;;;;;;3.92;2.75;;;;;;;12.70;69.89;99408.43;1754604;80;21502;-61
2022/05/15 04:21:40;;;;;;;8.60;3.52;;;;;;;12.69;69.77;99417.27;1767000;80;21907;-61
2022/05/15 04:24:09;;;;;;;;;;;;;;;12.75;69.64;99416.07;1755686;80;21435;-59
2022/05/15 04:26:36;;;;;;;9.23;3.12;;;;;;;12.71;68.86;99414.55;1757021;80;20931;-59
2022/05/15 04:29:04;;;;;;;4.70;2.98;;;;;;;12.63;69.04;99422.88;1758343;80;21486;-59
2022/05/15 04:31:31;;;;;;;;;;;;;;;12.76;69.02;99419.95;1762417;80;21624;-58
2022/05/15 04:33:58;;;;;;;6.03;2.85;;;;;;;12.95;68.23;99425.05;1763769;80;20411;-59
2022/05/15 04:36:25;;;;;;;8.55;3.77;;;;;;;13.12;67.29;99422.78;1752399;80;21533;-66
2022/05/15 04:38:52;;;;;;;5.78;3.35;;;;;;;13.09;67.14;99412.86;1753174;79;22006;-62
2022/05/15 04:41:19;;;;;;;7.00;3.15;;;;;;;13.10;66.87;99412.78;1763960;80;21430;-61
2022/05/15 04:43:47;;;;;;;12.73;3.02;;;;;;;13.09;67.39;99413.73;1753336;80;21446;-62
2022/05/15 04:46:14;;;;;;;6.17;3.22;;;;;;;13.22;66.94;99406.81;1758462;80;21543;-62
2022/05/15 04:48:41;;;;;;;4.37;2.93;;;;;;;13.40;66.68;99407.55;1765883;80;21510;-61
2022/05/15 04:51:10;;;;;;;8.55;3.10;;;;;;;13.46;66.27;99399.74;1769260;80;21693;-63
2022/05/15 04:53:37;;;;;;;5.47;2.90;;;;;;;13.47;66.06;99401.46;1756543;80;21837;-63
2022/05/15 04:56:05;;;;;;;4.87;2.53;;;;;;;13.58;66.27;99400.80;1766077;80;21529;-61
2022/05/15 04:58:32;;;;;;;8.15;2.92;;;;;;;13.79;65.41;99403.51;1760372;80;21049;-61
2022/05/15 05:00:59;;;;;;;6.28;3.05;;;;;;;13.79;65.41;99403.51;1754418;80;21423;-61
2022/05/15 05:03:26;;;;;;;6.17;3.20;;;;;;;13.79;64.88;99410.59;1754528;80;21593;-61
2022/05/15 05:05:54;;;;;;;7.55;3.25;;;;;;;13.79;65.11;99402.19;1759702;80;21688;-61
2022/05/15 05:08:21;;;;;;;6.72;3.05;;;;;;;13.83;65.19;99406.82;1748042;80;21572;-61
2022/05/15 05:10:48;;;;;;;7.08;2.80;;;;;;;13.93;64.64;99409.75;1766941;80;21470;-61
2022/05/15 05:13:17;;;;;;;5.33;3.12;;;;;;;14.10;64.33;99413.54;1759225;80;21412;-61
2022/05/15 05:15:44;;;;;;;9.78;3.30;;;;;;;14.17;63.38;99416.67;1765170;80;21831;-60
2022/05/15 05:18:16;;;;;;;4.62;3.02;;;;;;;14.17;63.54;99416.67;1750787;80;21498;-62
2022/05/15 05:20:44;;;;;;;7.97;2.85;;;;;;;14.27;63.70;99419.59;1758213;80;21491;-67
2022/05/15 05:23:12;;;;;;;11.20;3.00;;;;;;;14.47;62.63;99417.05;1758325;80;21559;-68
2022/05/15 05:25:39;;;;;;;6.08;3.02;;;;;;;14.74;62.01;99415.80;1745660;80;21403;-67
2022/05/15 05:28:06;;;;;;;7.47;3.58;;;;;;;14.97;60.59;99420.94;1749920;80;21553;-62
2022/05/15 05:30:34;;;;;;;10.40;2.87;;;;;;;14.91;59.90;99424.83;1751129;80;21522;-64
2022/05/15 05:33:01;;;;;;;5.42;2.75;;;;;;;15.01;59.99;99419.78;1750879;80;21055;-60
2022/05/15 05:35:28;;;;;;;6.33;2.85;;;;;;;15.15;60.33;99422.39;1752357;80;21546;-67
2022/05/15 05:37:54;;;;;;;5.93;3.17;;;;;;;15.19;59.60;99420.40;1749515;80;21652;-66
2022/05/15 05:40:22;;;;;;;3.33;2.40;;;;;;;15.26;59.30;99411.59;1741760;80;22282;-65
2022/05/15 05:42:49;;;;;;;;;;;;;;;15.41;59.26;99415.00;1747886;80;21434;-63
2022/05/15 05:45:17;;;;;;;6.97;3.08;;;;;;;15.50;58.49;99413.94;1754779;80;20488;-71
2022/05/15 05:47:46;;;;;;;;;;;;;;;15.53;58.07;99416.84;1745858;80;20986;-68
2022/05/15 05:50:13;;;;;;;10.20;2.90;;;;;;;15.34;58.28;99423.36;1754397;80;20423;-70
2022/05/15 05:52:40;;;;;;;4.37;2.83;;;;;;;15.28;58.39;99419.80;1744516;80;22223;-70
2022/05/15 05:55:10;;;;;;;6.87;3.27;;;;;;;15.20;58.58;99422.11;1758474;80;21396;-68
2022/05/15 05:57:38;;;;;;;5.30;2.70;;;;;;;15.14;58.75;99421.16;1746473;80;21529;-71
2022/05/15 06:00:06;;;;;;;9.85;3.10;;;;;;;15.14;58.60;99429.98;1750373;80;28728;-68
2022/05/15 06:02:35;;;;;;;4.95;2.47;;;;;;;15.27;57.82;99427.84;1754529;80;21526;-69
2022/05/15 06:05:02;;;;;;;6.20;2.70;;;;;;;15.42;57.69;99432.13;1754981;80;21903;-67
2022/05/15 06:07:29;;;;;;;6.50;3.05;;;;;;;15.45;56.42;99433.73;1746501;80;21621;-66
2022/05/15 06:09:55;;;;;;;8.48;2.50;;;;;;;15.62;56.58;99429.48;1750382;80;21419;-64
2022/05/15 06:12:24;;;;;;;6.10;3.12;;;;;;;15.71;56.60;99433.33;1752498;80;21664;-60
2022/05/15 06:14:51;;;;;;;4.95;2.45;;;;;;;15.74;56.68;99429.99;1757567;80;21598;-60
2022/05/15 06:17:23;;;;;;;5.58;2.80;;;;;;;15.75;56.77;99429.05;1746980;80;21882;-62
2022/05/15 06:19:50;;;;;;;8.50;3.77;;;;;;;15.75;56.62;99431.70;1748646;80;21427;-59
2022/05/15 06:22:16;;;;;;;5.50;2.75;;;;;;;15.74;56.64;99434.45;1752541;79;20993;-58
2022/05/15 06:24:44;;;;;;;6.47;2.52;;;;;;;15.65;56.77;99431.06;1758593;80;21519;-60
2022/05/15 06:27:11;;;;;;;7.80;2.70;;;;;;;15.65;57.18;99432.39;1756573;80;21537;-62
2022/05/15 06:29:38;;;;;;;7.00;2.80;;;;;;;15.66;57.14;99424.34;1745611;80;21897;-57
2022/05/15 06:32:07;;;;;;;7.33;2.77;;;;;;;15.74;57.23;99427.83;1748227;80;21491;-58
2022/05/15 06:34:34;;;;;;;6.72;2.62;;;;;;;15.96;57.20;99425.90;1754846;80;21022;-57
2022/05/15 06:37:00;;;;;;;6.90;2.72;;;;;;;16.13;56.66;99419.44;1750453;80;21634;-57
2022/05/15 06:39:27;;;;;;;5.63;3.07;;;;;;;16.19;56.21;99426.95;1751180;80;21056;-57
2022/05/15 06:41:57;;;;;;;8.78;3.45;;;;;;;16.19;56.42;99421.66;1752819;80;21981;-58
2022/05/15 06:44:25;;;;;;;7.17;3.58;;;;;;;16.32;56.21;99415.86;1761893;80;21463;-58
2022/05/15 06:46:52;;;;;;;4.83;2.62;;;;;;;16.23;56.65;99409.02;1763045;80;21489;-58
2022/05/15 06:49:18;;;;;;;6.60;2.90;;;;;;;16.15;55.85;99409.08;1747697;80;21562;-59
2022/05/15 06:51:45;;;;;;;6.00;2.83;;;;;;;16.30;55.22;99401.02;1752675;80;20994;-59
2022/05/15 06:54:11;;;;;;;3.65;2.65;;;;;;;16.28;55.17;99407.75;1759568;80;22087;-58
2022/05/15 06:59:23;;;;;;;7.60;2.77;;;;;;;16.59;54.81;99400.25;1746750;80;21578;-57
2022/05/15 07:01:50;;;;;;;8.05;2.55;;;;;;;16.87;54.77;99392.50;1764594;80;21548;-57
2022/05/15 07:04:16;;;;;;;5.60;2.27;;;;;;;17.07;54.21;99389.73;1769087;80;21502;-58
2022/05/15 07:06:44;;;;;;;4.97;2.17;;;;;;;17.31;52.81;99403.49;1756662;80;21915;-58
2022/05/15 07:09:10;;;;;;;4.62;2.35;;;;;;;17.42;52.67;99388.92;1757827;80;21375;-58
2022/05/15 07:11:39;;;;;;;4.70;2.10;;;;;;;17.46;51.15;99382.87;1760720;80;21553;-56
2022/05/15 07:14:08;;;;;;;5.47;2.25;;;;;;;17.49;52.05;99382.16;1764396;80;21009;-58
2022/05/15 07:16:35;;;;;;;;;;;;;;;17.60;51.40;99379.19;1753207;80;21561;-58
2022/05/15 07:19:01;;;;;;;5.25;2.35;;;;;;;17.47;51.45;99377.44;1754950;80;21843;-59
2022/05/15 07:21:28;;;;;;;5.87;2.33;;;;;;;17.52;52.32;99379.77;1757994;80;21444;-59
2022/05/15 07:23:55;;;;;;;4.25;2.00;;;;;;;17.79;50.92;99382.61;1761713;80;21056;-59
2022/05/15 07:26:22;;;;;;;4.17;2.10;;;;;;;17.77;50.40;99376.56;1759325;79;21463;-63
2022/05/15 07:28:51;;;;;;;7.28;2.15;;;;;;;17.69;50.17;99378.48;1760795;80;21526;-62
2022/05/15 07:31:19;;;;;;;7.35;2.47;;;;;;;17.71;49.92;99375.22;1760607;80;21793;-63
2022/05/15 07:33:46;;;;;;;5.12;2.02;;;;;;;17.89;50.57;99372.52;1763451;80;20947;-58
2022/05/15 07:36:14;;;;;;;5.58;2.15;;;;;;;17.93;49.74;99379.73;1761751;80;21458;-58
2022/05/15 07:38:41;;;;;;;4.25;2.08;;;;;;;18.11;49.49;99372.16;1762886;80;21553;-58
2022/05/15 07:41:08;;;;;;;4.70;1.97;;;;;;;18.21;47.99;99374.94;1750908;80;21518;-57
2022/05/15 07:43:36;;;;;;;7.80;2.27;;;;;;;18.29;47.75;99374.70;1754098;80;21870;-60
2022/05/15 07:46:03;;;;;;;10.87;2.30;;;;;;;18.27;47.33;99388.61;1760483;80;21520;-62
2022/05/15 07:48:30;;;;;;;6.17;2.20;;;;;;;18.34;47.64;99363.67;1762656;80;21083;-62
2022/05/15 07:50:57;;;;;;;9.88;2.37;;;;;;;18.21;46.72;99377.59;1761924;80;21426;-61
2022/05/15 07:53:23;;;;;;;6.33;2.30;;;;;;;18.15;46.26;99375.42;1756620;80;21549;-62
2022/05/15 07:55:50;;;;;;;3.75;2.20;;;;;;;18.39;46.34;99365.98;1767027;80;21824;-63
2022/05/15 07:58:17;;;;;;;7.30;2.33;;;;;;;18.43;47.19;99376.25;1758118;80;21388;-62
2022/05/15 08:00:44;;;;;;;6.15;2.20;;;;;;;18.49;47.02;99373.59;1760710;80;21467;-61
2022/05/15 08:03:13;;;;;;;7.17;2.47;;;;;;;18.63;46.27;99377.83;1761628;80;21498;-61
2022/05/15 08:08:26;;;;;;;11.80;2.87;;;;;;;19.11;45.50;99357.48;1752525;80;21936;-60
2022/05/15 08:10:52;;;;;;;8.20;2.40;;;;;;;19.23;45.60;99359.14;1755137;80;21549;-64
2022/05/15 08:13:24;;;;;;;6.42;1.77;;;;;;;19.17;44.80;99356.13;1749635;80;21321;-62
2022/05/15 08:15:53;;;;;;;5.72;2.17;;;;;;;18.94;43.61;99362.03;1757102;80;21478;-68
2022/05/15 08:23:56;;;;;;;7.30;2.60;;;;;;;18.75;44.18;99361.33;1751060;80;21511;-65
2022/05/15 08:26:23;;;;;;;4.08;2.20;;;;;;;18.87;44.53;99356.35;1746915;80;21523;-63
2022/05/15 08:28:50;;;;;;;4.90;2.37;;;;;;;19.05;43.20;99365.50;1747409;80;21593;-61
2022/05/15 08:31:17;;;;;;;7.15;2.35;;;;;;;19.21;43.34;99362.89;1749821;80;21435;-59
2022/05/15 08:33:44;;;;;;;5.40;1.92;;;;;;;19.34;42.49;99352.90;1753727;80;21776;-66
2022/05/15 08:36:11;;;;;;;6.97;2.33;;;;;;;19.44;41.62;99345.83;1754224;80;21936;-67
2022/05/15 08:38:38;;;;;;;4.73;2.10;;;;;;;19.57;41.43;99360.77;1749047;80;21618;-66
2022/05/15 08:41:34;;;;;;;9.53;2.10;;;;;;;19.49;40.75;99347.26;1749940;80;21814;-64
2022/05/15 08:44:09;;;;;;;10.53;2.15;;;;;;;19.43;41.30;99355.29;1746154;80;21519;-63
2022/05/15 08:46:53;;;;;;;4.03;1.87;;;;;;;19.35;40.57;99347.94;1757797;80;21765;-63
2022/05/15 08:50:01;;;;;;;6.22;2.42;;;;;;;19.21;40.33;99349.56;1732502;80;21558;-62
2022/05/15 08:53:03;;;;;;;4.00;1.67;;;;;;;19.05;40.61;99342.86;1712893;81;21443;-60
2022/05/15 08:55:42;;;;;;;8.50;2.33;;;;;;;18.92;40.25;99350.66;1737762;80;21620;-63
2022/05/15 08:58:29;;;;;;;7.80;2.20;;;;;;;18.83;41.32;99352.25;1748390;80;21514;-63
2022/05/15 09:00:55;;;;;;;7.05;2.60;;;;;;;18.91;41.68;99351.16;1752738;80;21467;-64
2022/05/15 09:03:29;;;;;;;3.87;1.87;;;;;;;18.90;41.55;99346.79;1755958;80;21488;-66
2022/05/15 09:06:10;;;;;;;10.48;2.30;;;;;;;19.00;42.59;99343.72;1753241;80;21490;-63
2022/05/15 09:09:18;;;;;;;5.40;2.00;;;;;;;19.25;41.39;99334.55;1745381;79;21419;-65
2022/05/15 09:12:16;;;;;;;4.78;1.92;;;;;;;19.75;41.77;99333.91;1759916;79;21549;-64
2022/05/15 09:15:12;;;;;;;7.22;2.25;;;;;;;20.02;40.58;99335.16;1748223;79;21794;-64
2022/05/15 09:17:58;;;;;;;13.55;2.05;;;;;;;19.83;40.26;99326.58;1751671;80;21570;-64
2022/05/15 09:20:42;;;;;;;7.00;2.10;;;;;;;19.88;40.57;99335.53;1747173;80;21545;-65
2022/05/15 09:23:34;;;;;;;7.37;2.20;;;;;;;19.75;40.71;99325.91;1749896;80;21466;-65
2022/05/15 09:26:09;;;;;;;3.67;2.00;;;;;;;19.72;41.23;99328.86;1745197;80;21582;-65
2022/05/15 09:28:51;;;;;;;3.30;1.60;;;;;;;19.83;40.54;99331.45;1754926;80;22132;-65
2022/05/15 09:31:30;;;;;;;8.88;2.45;;;;;;;19.82;40.05;99331.08;1748902;80;21582;-66
2022/05/15 09:34:03;;;;;;;6.28;2.12;;;;;;;19.89;39.53;99335.41;1747382;80;21486;-65
2022/05/15 09:36:41;;;;;;;5.62;2.22;;;;;;;19.84;38.64;99341.12;1743363;80;21597;-65
2022/05/15 09:39:20;;;;;;;6.65;2.20;;;;;;;19.86;39.62;99338.83;1747992;80;21439;-65
2022/05/15 09:45:25;;;;;;;10.53;2.12;;;;;;;19.84;39.65;99340.28;1750036;80;21061;-65
2022/05/15 09:48:01;;;;;;;6.47;2.08;;;;;;;19.84;39.61;99338.45;1755122;80;21435;-65
2022/05/15 09:50:51;;;;;;;5.00;2.30;;;;;;;19.79;39.92;99329.16;1756137;80;21381;-66
2022/05/15 09:53:36;;;;;;;4.22;1.90;;;;;;;19.78;39.68;99326.98;1754129;80;21534;-68
2022/05/15 09:56:23;;;;;;;6.55;3.08;;;;;;;19.83;40.10;99324.78;1747583;80;21899;-64
2022/05/15 09:59:12;;;;;;;7.00;2.55;;;;;;;19.67;40.08;99323.53;1739949;80;21407;-65
2022/05/15 10:01:58;;;;;;;4.30;2.08;;;;;;;19.77;39.88;99319.11;1741673;80;21442;-66
2022/05/15 10:04:27;;;;;;;8.20;2.25;;;;;;;19.81;40.07;99324.03;1744382;80;21478;-64
2022/05/15 10:07:02;;;;;;;5.65;2.10;;;;;;;19.58;40.69;99326.48;1746927;80;21430;-70
2022/05/15 10:09:36;;;;;;;7.22;2.17;;;;;;;19.74;40.27;99320.70;1746478;80;21721;-62
2022/05/15 10:12:18;;;;;;;7.20;2.20;;;;;;;19.71;39.87;99319.12;1752346;80;21585;-61
2022/05/15 10:14:54;;;;;;;4.67;2.05;;;;;;;19.81;40.18;99325.86;1758440;80;21443;-64
2022/05/15 10:17:23;;;;;;;6.30;1.95;;;;;;;19.95;40.07;99323.36;1749401;80;21553;-63
2022/05/15 10:20:00;;;;;;;4.62;1.77;;;;;;;19.89;39.64;99327.41;1747823;80;21601;-62
2022/05/15 10:22:45;;;;;;;8.98;2.58;;;;;;;19.84;40.04;99324.28;1710870;81;21912;-61
2022/05/15 10:25:33;;;;;;;7.83;2.20;;;;;;;19.82;39.73;99321.73;1684212;82;21547;-60
2022/05/15 10:28:47;;;;;;;8.73;2.20;;;;;;;20.08;40.24;99317.77;1675599;83;21514;-59
2022/05/15 10:31:37;;;;;;;9.58;2.12;;;;;;;20.47;39.47;99314.73;1675780;84;21529;-60
2022/05/15 10:34:11;;;;;;;7.40;1.70;;;;;;;20.76;38.41;99303.31;1678197;84;21608;-60
2022/05/15 10:36:57;;;;;;;9.78;2.00;;;;;;;21.05;37.20;99301.14;1683334;83;22120;-61
2022/05/15 10:40:08;;;;;;;8.40;2.20;;;;;;;21.37;37.47;99308.34;1680250;84;21128;-65
2022/05/15 10:43:20;;;;;;;7.47;2.40;;;;;;;21.55;36.72;99310.34;1673186;84;21546;-65
2022/05/15 10:46:12;;;;;;;5.28;2.35;;;;;;;21.54;36.47;99305.95;1677372;83;21483;-67
2022/05/15 10:49:11;;;;;;;4.90;1.70;;;;;;;21.51;36.02;99299.55;1676078;83;21428;-64
2022/05/15 10:52:20;;;;;;;6.55;2.00;;;;;;;21.43;35.59;99298.06;1685309;83;21918;-65
2022/05/15 10:57:59;;;;;;;7.20;1.87;;;;;;;21.04;35.89;99306.11;1664859;84;21659;-63
2022/05/15 11:01:08;;;;;;;6.58;1.80;;;;;;;20.97;36.43;99309.86;1681351;84;21597;-62
2022/05/15 11:03:57;;;;;;;6.28;2.20;;;;;;;20.95;36.24;99314.50;1681646;83;21442;-63
2022/05/15 11:06:47;;;;;;;9.15;1.77;;;;;;;20.86;35.26;99305.48;1688075;83;23193;-64
2022/05/15 11:09:28;;;;;;;10.72;2.10;;;;;;;20.65;34.89;99308.78;1697727;83;21066;-62
2022/05/15 11:12:21;;;;;;;4.35;1.95;;;;;;;20.57;35.71;99314.78;1729577;81;21543;-61
2022/05/15 11:15:07;;;;;;;6.97;2.58;;;;;;;20.85;37.25;99309.63;1721008;82;21576;-62
2022/05/15 11:18:01;;;;;;;6.50;2.22;;;;;;;21.16;36.21;99311.69;1736402;81;21601;-63
2022/05/15 11:20:43;;;;;;;6.55;2.20;;;;;;;21.49;36.21;99301.53;1730919;81;21945;-62
2022/05/15 11:23:20;;;;;;;6.08;1.92;;;;;;;21.66;35.40;99310.64;1764426;80;21426;-59
2022/05/15 11:25:56;;;;;;;;;;;;;;;21.59;35.22;99306.38;1756470;80;21592;-57
2022/05/15 11:28:37;;;;;;;5.22;2.10;;;;;;;21.55;34.84;99307.66;1766994;80;20549;-60
2022/05/15 11:31:09;;;;;;;6.67;2.15;;;;;;;21.47;35.11;99308.85;1761714;80;21513;-59
2022/05/15 11:33:56;;;;;;;7.37;2.08;;;;;;;21.36;35.31;99301.32;1732238;81;21927;-59
2022/05/15 11:36:29;;;;;;;9.58;2.33;;;;;;;21.30;36.29;99307.72;1768596;80;21545;-60
2022/05/15 11:39:22;;;;;;;12.33;2.47;;;;;;;21.34;35.96;99305.97;1754174;80;21534;-59
2022/05/15 11:42:09;;;;;;;7.85;2.65;;;;;;;21.54;35.94;99312.64;1754725;80;21586;-59
2022/05/15 11:44:47;;;;;;;10.43;2.70;;;;;;;21.81;36.46;99309.18;1759926;80;21348;-58
2022/05/15 11:47:20;;;;;;;10.72;2.72;;;;;;;22.12;36.81;99302.25;1768902;80;21792;-60
2022/05/15 11:50:10;;;;;;;9.73;2.60;;;;;;;22.15;36.17;99308.63;1732300;81;21522;-59
2022/05/15 11:52:50;;;;;;;4.78;2.10;;;;;;;22.00;36.19;99306.95;1767600;80;21490;-60
2022/05/15 11:55:40;;;;;;;6.00;2.17;;;;;;;21.88;36.45;99312.97;1765684;79;21550;-59
2022/05/15 11:58:27;;;;;;;5.55;2.10;;;;;;;21.61;35.32;99320.95;1764280;80;20998;-60
2022/05/15 12:01:04;;;;;;;9.93;2.47;;;;;;;21.24;34.96;99321.16;1761607;79;22080;-58
2022/05/15 12:03:41;;;;;;;;;;;;;;;21.09;35.70;99322.58;1765641;80;20934;-62
2022/05/15 12:06:14;;;;;;;7.75;2.27;;;;;;;20.87;36.50;99318.34;1766278;79;20573;-61
2022/05/15 12:08:41;;;;;;;10.05;2.60;;;;;;;20.93;36.42;99333.34;1767277;80;22541;-59
2022/05/15 12:11:29;;;;;;;8.03;2.45;;;;;;;20.86;36.44;99318.01;1767278;79;21585;-62
2022/05/15 12:13:55;;;;;;;9.45;2.20;;;;;;;20.91;35.78;99309.92;1763326;80;21742;-60
2022/05/15 12:16:33;;;;;;;8.95;2.45;;;;;;;21.06;35.04;99319.70;1760578;80;21005;-60
2022/05/15 12:19:27;;;;;;;7.05;2.27;;;;;;;21.22;35.09;99311.11;1729654;80;21270;-60